Terminal Aerodrome Forecast
Issued by NWS Medford, OR

Home | Current Version | Previous Version | Text Only | Print | Product List | Glossary On
Versions: 1 2 3 4 5 6 7 8 9 10 11 12 13 14 15
000
FTUS46 KMFR 281120
TAFMFR
TAF
KMFR 281120Z 2812/2912 VRB03KT P6SM SCT040
     FM281600 VRB03KT P6SM SCT040 BKN250
     FM282200 31009KT P6SM SCT250
     FM290300 VRB03KT P6SM SCT250=

USA.gov is the U.S. government's official web portal to all federal, state and local government web resources and services.